This is the latest recevied weather packets stored in our database for station/object KA3WVU. If no packets are shown the sender has not sent any weather packets the latest 10 day(s).
| Time | Temp. | Humidity | Pressure | Rain* | Wind** | Luminosity | Snow |
|---|---|---|---|---|---|---|---|
| 1777996782 | 20° C | 51% | 1008.6 hPa | 0 mm | - | 259 W/m² | - |
| 1777996479 | 19.44° C | 53% | 1008.6 hPa | 0 mm | - | 180 W/m² | - |
| 1777996175 | 19.44° C | 54% | 1008.6 hPa | 0 mm | - | 141 W/m² | - |
| 1777995867 | 18.89° C | 56% | 1008.8 hPa | 0 mm | - | 167 W/m² | - |
| 1777995562 | 19.44° C | 54% | 1008.8 hPa | 0 mm | - | 140 W/m² | - |
| 1777995260 | 20° C | 53% | 1009 hPa | 0 mm | - | 172 W/m² | - |
| 1777994956 | 20° C | 55% | 1008.9 hPa | 0 mm | - | 263 W/m² | - |
| 1777994654 | 20° C | 54% | 1008.9 hPa | 0 mm | - | 290 W/m² | - |
| 1777994353 | 20.56° C | 53% | 1008.9 hPa | 0 mm | - | 349 W/m² | - |
| 1777994050 | 20° C | 54% | 1009 hPa | 0 mm | - | 425 W/m² | - |
| 1777993742 | 20° C | 55% | 1008.8 hPa | 0 mm | - | 398 W/m² | - |
| 1777993439 | 20° C | 56% | 1009.1 hPa | 0 mm | - | 265 W/m² | - |
| 1777993138 | 20° C | 56% | 1008.9 hPa | 0 mm | - | 280 W/m² | - |
| 1777992836 | 19.44° C | 55% | 1009.3 hPa | 0 mm | - | 295 W/m² | - |
| 1777992534 | 19.44° C | 57% | 1009.1 hPa | 0 mm | - | 367 W/m² | - |
| 1777992233 | 19.44° C | 57% | 1009.1 hPa | 0 mm | - | 604 W/m² | - |
| 1777991929 | 19.44° C | 58% | 1009.3 hPa | 0 mm | - | 165 W/m² | - |
| 1777991627 | 19.44° C | 57% | 1009.3 hPa | 0 mm | - | 279 W/m² | - |
| 1777991324 | 18.89° C | 58% | 1009.3 hPa | 0 mm | - | 213 W/m² | - |
| 1777991021 | 18.89° C | 59% | 1009.4 hPa | 0 mm | - | 319 W/m² | - |
| 1777990718 | 18.89° C | 57% | 1009 hPa | 0 mm | - | 551 W/m² | - |
| 1777990416 | 18.89° C | 61% | 1009.1 hPa | 0 mm | - | 174 W/m² | - |
| 1777989808 | 18.89° C | 59% | 1009.1 hPa | 0 mm | - | 333 W/m² | - |
| 1777989506 | 18.33° C | 59% | 1009 hPa | 0 mm | - | 433 W/m² | - |
| 1777989202 | 18.33° C | 60% | 1009 hPa | 0 mm | - | 497 W/m² | - |
* Rain latest hour (hover to see other rain measurements)
** Current wind speed in m/s (hover to see current wind gust speed)